Flight Track Log - Related Links

Times and Time Zones

All times are in EDT time to prevent confusion due to time zone crossing. See the SWA1086 flight status page for this flight to view local times or setup timezone preferences in your user account.


Time Position Orientation Groundspeed Altitude Reporting Facility
EDT Latitude Longitude Course Direction KTS MPH feet Rate Location/Type
Fri 09:45:36 PM 39.2667 -94.7333 180° South 172 198 3,700  Level Kansas City TRACON
Fri 09:46:10 PM 39.2358 -94.7542 208° Southwest 213 245 5,500 3,726 Climbing Kansas City Center
Fri 09:47:11 PM 39.1661 -94.7756 193° South 262 302 9,600 3,148 Climbing Kansas City Center
Fri 09:48:12 PM 39.0814 -94.8078 196° South 342 394 11,900 3,246 Climbing Kansas City Center
Fri 09:49:13 PM 38.9614 -94.8492 195° South 393 452 16,200 3,639 Climbing Kansas City Center
Fri 09:50:00 PM 38.6915 -94.9355 191° South  Level FlightAware Approximate
Fri 09:50:14 PM 38.8511 -94.8883 195° South 426 490 19,300  Level Kansas City Center
Fri 09:51:15 PM 38.7350 -94.9303 196° South 450 518 22,100 2,803 Climbing Kansas City Center
Fri 09:52:16 PM 38.5903 -94.9819 196° South 480 552 25,000 2,410 Climbing Kansas City Center
Fri 09:53:17 PM 38.4619 -95.0275 196° South 498 573 27,000 2,016 Climbing Kansas City Center
Fri 09:54:18 PM 38.3278 -95.0744 195° South 518 596 29,100 2,410 Climbing Kansas City Center
Fri 09:55:19 PM 38.1708 -95.1281 195° South 521 600 31,900 2,459 Climbing Kansas City Center
Fri 09:56:20 PM 38.0344 -95.1750 195° South 527 606 34,100 2,016 Climbing Kansas City Center
Fri 09:57:21 PM 37.8906 -95.2256 195° South 524 603 36,000 934 Climbing Kansas City Center
Fri 09:58:22 PM 37.7458 -95.2531 189° South 526 605 36,000  Level Kansas City Center
Fri 09:59:24 PM 37.5989 -95.2453 178° South 523 602 36,000  Level Kansas City Center
Fri 10:00:25 PM 37.4528 -95.2453 180° South 524 603 36,000  Level Kansas City Center
Fri 10:01:26 PM 37.3075 -95.2464 180° South 521 600 36,000  Level Kansas City Center
Fri 10:02:27 PM 37.1619 -95.2456 180° South 522 601 36,000  Level Kansas City Center
Fri 10:03:28 PM 37.0161 -95.2450 180° South 522 601 36,000  Level Kansas City Center
Fri 10:04:29 PM 36.8700 -95.2456 180° South 522 601 36,000  Level Kansas City Center
Fri 10:05:30 PM 36.7239 -95.2453 180° South 522 601 36,000  Level Kansas City Center
Fri 10:06:31 PM 36.5544 -95.2444 180° South 526 605 36,000  Level Kansas City Center
Fri 10:07:32 PM 36.4064 -95.2428 179° South 529 609 36,000  Level Kansas City Center
Fri 10:08:33 PM 36.2581 -95.2436 180° South 532 612 36,000  Level Kansas City Center
Fri 10:09:34 PM 36.1119 -95.2442 180° South 527 606 36,000  Level Kansas City Center
Fri 10:10:35 PM 35.9783 -95.2453 180° South 522 601 36,000  Level Kansas City Center
Fri 10:11:36 PM 35.8033 -95.2453 180° South 521 600 36,000  Level Kansas City Center
Fri 10:12:37 PM 35.6647 -95.2925 195° South 520 598 36,000 -49 Level Kansas City Center
Fri 10:13:38 PM 35.5281 -95.3522 200° South 519 597 35,900 -453 Descending Kansas City Center
Fri 10:14:23 PM 35.4400 -95.3931 201° Southwest 520 598 35,200 -914 Descending Fort Worth Center
Fri 10:15:23 PM 35.3014 -95.4550 200° South 525 604 34,300 -950 Descending Fort Worth Center
Fri 10:16:23 PM 35.1647 -95.5192 201° Southwest 525 604 33,300 -950 Descending Fort Worth Center
Fri 10:17:23 PM 35.0258 -95.5778 199° South 525 604 32,400 -1,000 Descending Fort Worth Center
Fri 10:18:23 PM 34.8744 -95.6444 200° South 525 604 31,300 -700 Descending Fort Worth Center
Fri 10:19:23 PM 34.7333 -95.7031 199° South 525 604 31,000 -150 Descending Fort Worth Center
Fri 10:20:23 PM 34.5986 -95.7636 200° South 525 604 31,000  Level Fort Worth Center
Fri 10:21:23 PM 34.4617 -95.8217 199° South 525 604 31,000  Level Fort Worth Center
Fri 10:22:23 PM 34.3247 -95.8819 200° South 525 604 31,000  Level Fort Worth Center
Fri 10:23:23 PM 34.1897 -95.9422 200° South 525 604 31,000 -1,350 Level Fort Worth Center
Fri 10:24:23 PM 34.0569 -95.9969 199° South 519 597 28,300 -3,150 Descending Fort Worth Center
Fri 10:25:23 PM 33.9239 -96.0567 200° South 514 592 24,700 -3,500 Descending Fort Worth Center
Fri 10:26:23 PM 33.7886 -96.0714 185° South 494 568 21,300 -3,100 Descending Fort Worth Center
Fri 10:27:23 PM 33.6614 -96.0858 185° South 472 543 18,500 -2,850 Descending Fort Worth Center
Fri 10:28:23 PM 33.5467 -96.1025 187° South 439 505 15,600 -2,750 Descending Fort Worth Center
Fri 10:29:23 PM 33.4536 -96.1736 213° Southwest 403 464 13,000 -2,150 Descending Fort Worth Center
Fri 10:30:23 PM 33.3686 -96.2469 216° Southwest 381 438 11,300 -1,450 Descending Fort Worth Center
Fri 10:31:23 PM 33.2878 -96.3150 215° Southwest 375 432 10,100 -650 Descending Fort Worth Center
Fri 10:32:23 PM 33.2258 -96.3928 226° Southwest 343 395 10,000 -700 Descending Fort Worth Center
Fri 10:33:23 PM 33.1742 -96.4728 232° Southwest 316 364 8,700 -1,450 Descending Fort Worth Center
Fri 10:34:23 PM 33.1269 -96.5478 233° Southwest 292 336 7,100 -1,650 Descending Fort Worth Center
Fri 10:35:23 PM 33.0856 -96.6225 237° Southwest 287 330 5,400 -1,000 Descending Fort Worth Center
Fri 10:36:23 PM 33.0442 -96.6872 233° Southwest 282 325 5,100 -1,000 Descending Fort Worth Center
Fri 10:37:23 PM 32.9967 -96.7644 234° Southwest 276 318 3,400 -1,000 Descending Fort Worth Center
Fri 10:38:23 PM 32.9594 -96.8267 235° Southwest 264 304 3,100 -450 Descending Fort Worth Center
Fri 10:39:23 PM 32.9219 -96.8864 233° Southwest 239 275 2,500 -800 Descending Fort Worth Center
Fri 10:40:23 PM 32.8928 -96.9111 215° Southwest 152 175 1,500 -750 Descending Fort Worth Center
Fri 10:41:23 PM 32.8678 -96.8817 135° Southeast 102 117 1,000 -400 Descending Fort Worth Center
Fri 10:42:23 PM 32.8447 -96.8819 181° South 102 117 700 15,000 Descending Fort Worth Center
Fri 10:43:23 PM 32.8178 -96.8819 180° South 102 117 31,000 30,300 Climbing Fort Worth Center

Login

Don't have an account? Register now (free) for customized features, flight alerts, and more!